createdAt,value
2023-01-28T00:00:00.000Z,43.11
2023-01-28T00:15:00.000Z,42.81
2023-01-28T00:30:00.000Z,43.68
2023-01-28T00:45:00.000Z,43.74
2023-01-28T01:00:00.000Z,46.93
2023-01-28T01:15:00.000Z,46.66
2023-01-28T01:30:00.000Z,47.19
2023-01-28T01:45:00.000Z,48.66
2023-01-28T02:00:00.000Z,48.14
2023-01-28T02:15:00.000Z,45.8
2023-01-28T02:30:00.000Z,44.02
2023-01-28T02:45:00.000Z,40.8
2023-01-28T03:00:00.000Z,39.41
2023-01-28T03:15:00.000Z,38.27
2023-01-28T03:30:00.000Z,37.25
2023-01-28T03:45:00.000Z,38.53
2023-01-28T04:00:00.000Z,37.58
2023-01-28T04:15:00.000Z,37.2
2023-01-28T04:30:00.000Z,36.94
2023-01-28T04:45:00.000Z,37.22
2023-01-28T05:00:00.000Z,37.71
2023-01-28T05:15:00.000Z,38.04
2023-01-28T05:30:00.000Z,37.98
2023-01-28T05:45:00.000Z,39.15
2023-01-28T06:00:00.000Z,39.66
2023-01-28T06:15:00.000Z,39.67
2023-01-28T06:30:00.000Z,39.8
2023-01-28T06:45:00.000Z,49.51
2023-01-28T07:00:00.000Z,40.13
2023-01-28T07:15:00.000Z,40
2023-01-28T07:30:00.000Z,40.11
2023-01-28T07:45:00.000Z,40.67
2023-01-28T08:00:00.000Z,41.29
2023-01-28T08:15:00.000Z,40.47
2023-01-28T08:30:00.000Z,40.96
2023-01-28T08:45:00.000Z,41.09
2023-01-28T09:00:00.000Z,42.92
2023-01-28T09:15:00.000Z,42.45
2023-01-28T09:30:00.000Z,42.15
2023-01-28T09:45:00.000Z,42.26
2023-01-28T10:00:00.000Z,42.81
2023-01-28T10:15:00.000Z,43.96
2023-01-28T10:30:00.000Z,42.71
2023-01-28T10:45:00.000Z,42.13
2023-01-28T11:00:00.000Z,42.07
2023-01-28T11:15:00.000Z,42.22
2023-01-28T11:30:00.000Z,42.04
2023-01-28T11:45:00.000Z,42.26
2023-01-28T12:00:00.000Z,39.82
2023-01-28T12:15:00.000Z,39.72
2023-01-28T12:30:00.000Z,39.95
2023-01-28T12:45:00.000Z,40.73
2023-01-28T13:00:00.000Z,40.91
2023-01-28T13:15:00.000Z,40.26
2023-01-28T13:30:00.000Z,40.93
2023-01-28T13:45:00.000Z,41.18
2023-01-28T14:00:00.000Z,41.92
2023-01-28T14:15:00.000Z,43.7
2023-01-28T14:30:00.000Z,42.15
2023-01-28T14:45:00.000Z,43.56
2023-01-28T15:00:00.000Z,45.12
2023-01-28T15:15:00.000Z,53.67
2023-01-28T15:30:00.000Z,41.86
2023-01-28T15:45:00.000Z,42.16
2023-01-28T16:00:00.000Z,41.71
2023-01-28T16:15:00.000Z,42.12
2023-01-28T16:30:00.000Z,47.71
2023-01-28T16:45:00.000Z,44.81
2023-01-28T17:00:00.000Z,48.54
2023-01-28T17:15:00.000Z,48.54
2023-01-28T17:30:00.000Z,47.58
2023-01-28T17:45:00.000Z,53.79
2023-01-28T18:00:00.000Z,61.25
2023-01-28T18:15:00.000Z,49.11
2023-01-28T18:30:00.000Z,71.78
2023-01-28T18:45:00.000Z,54.26
2023-01-28T19:00:00.000Z,49.76
2023-01-28T19:15:00.000Z,56.34
2023-01-28T19:30:00.000Z,59.67
2023-01-28T19:45:00.000Z,50.47
2023-01-28T20:00:00.000Z,51.51
2023-01-28T20:15:00.000Z,51.31
2023-01-28T20:30:00.000Z,50.15
2023-01-28T20:45:00.000Z,50.01
2023-01-28T21:00:00.000Z,51.05
2023-01-28T21:15:00.000Z,52.45
2023-01-28T21:30:00.000Z,50.52
2023-01-28T21:45:00.000Z,48.39
2023-01-28T22:00:00.000Z,49.41
2023-01-28T22:15:00.000Z,48.13
2023-01-28T22:30:00.000Z,48.46
2023-01-28T22:45:00.000Z,48.79
2023-01-28T23:00:00.000Z,49.76
2023-01-28T23:15:00.000Z,50.95
2023-01-28T23:30:00.000Z,52.41
2023-01-28T23:45:00.000Z,52.55
